Tiempo atmosférico en la estación meteorológica de Cádiz, Cadiz (1 m.)



Fecha
DESCASC
Temp. máxima en grados centígrados (hora)
DESCASC
Temp. mínima en grados centígrados (hora)
DESCASC
Temp. media en grados centígrados
DESCASC
Racha de viento máxima en m/sg (hora)
DESCASC
Velocidad máxima media en intervalos de 10 minutos(hora)
DESCASC
Precipitaciones diarias en mm
DESCASC
Precipitaciones de 00:00 a 06:00 en mm
DESCASC
Precipitaciones de 06:00 a 12:00 en mm
DESCASC
Precipitaciones de 12:00 a 18:00 en mm
DESCASC
Precipitaciones de 18:00 a 24:00 en mm
DESCASC
21-03-2019 17.8 (16:00) 11.4 (07:30) 14.6 15.56 (14:30) 11.39 (17:30) 0 0 0 0 0
20-03-2019 18.4 (13:20) 12.9 (07:50) 15.6 15.83 (16:40) 11.67 (17:30) 0 0 0 0 0
19-03-2019 21.1 (15:30) 12.7 (08:00) 16.9 10.28 (17:50) 6.94 (23:40) 0 0 0 0 0
18-03-2019 18.5 (16:30) 13.9 (07:40) 16.2 8.89 (03:20) 6.67 (03:20) 0 0 0 0 0
17-03-2019 20 (16:00) 12.8 (00:00) 16.4 8.33 (17:40) 5.83 (15:10) 0 0 0 0 0
16-03-2019 21.7 (11:30) 14 (00:00) 17.9 9.72 (00:40) 6.94 (00:40) 0 0 0 0 0
15-03-2019 24.5 (17:10) 11.8 (00:00) 18.2 8.61 (23:10) 6.67 (23:10) 0 0 0 0 0
14-03-2019 22.8 (16:40) 11.3 (00:00) 17 9.17 (14:00) 6.94 (14:00) 0 0 0 0 0
13-03-2019 18.1 (18:10) 13.5 (00:00) 15.8 9.44 (13:10) 7.5 (09:40) 0 0 0 0 0
12-03-2019 21.9 (12:20) 15.4 (00:00) 18.6 11.11 (05:20) 8.33 (05:10) 0 0 0 0 0
11-03-2019 23.4 (14:50) 12.9 (00:00) 18.1 7.5 (17:10) 5.83 (17:00) 0 0 0 0 0
10-03-2019 24.1 (17:00) 11.4 (00:00) 17.8 6.39 (00:10) 5 (00:10) 0 0 0 0 0
09-03-2019 21.6 (16:50) 11.6 (00:00) 16.6 7.78 (21:50) 6.11 (20:40) 0 0 0 0 0
08-03-2019 18.2 (16:40) 13.3 (00:00) 15.8 8.89 (12:00) 6.11 (12:00) 4.7 2.8 1.9 0 0
07-03-2019 17.2 (16:50) 11.5 (00:00) 14.4 9.44 (00:10) 6.11 (00:10) 0 0 0 0 0
06-03-2019 16.9 (10:10) 14.5 (00:00) 15.7 16.67 (12:10) 9.72 (12:10) 4.3 0 3.3 1 0
05-03-2019 18.7 (17:00) 15.6 (00:00) 17.2 6.67 (14:00) 4.17 (14:10) 0 0 0 0 0
04-03-2019 18.9 (16:50) 13.4 (00:00) 16.1 6.94 (09:10) 4.72 (09:00) 0 0 0 0 0
03-03-2019 19.5 (15:10) 11.2 (00:00) 15.3 5.83 (17:20) 3.61 (18:40) 0 0 0 0 0
02-03-2019 17.9 (16:30) 12.3 (00:00) 15.1 5.83 (03:30) 3.33 (03:20) 0 0 0 0 0
01-03-2019 18.6 (15:10) 11 (00:00) 14.8 5.56 (13:00) 3.61 (12:50) 0 0 0 0 0
28-02-2019 18.6 (15:40) 9.3 (00:00) 14 6.67 (16:50) 4.72 (16:40) 0 0 0 0 0
27-02-2019 20.2 (15:20) 12.9 (00:00) 16.6 13.06 (10:40) 9.72 (00:10) 0 0 0 0 0
26-02-2019 18.5 (16:20) 12.8 (00:00) 15.7 17.22 (00:40) 12.5 (17:00) 0 0 0 0 0
25-02-2019 18.1 (15:30) 13.7 (00:00) 15.9 17.78 (18:00) 13.33 (17:40) 0 0 0 0 0
24-02-2019 19.9 (14:20) 10.8 (00:00) 15.3 14.72 (16:20) 10.83 (16:10) 0 0 0 0 0
23-02-2019 21 (17:20) 10.4 (00:00) 15.7 6.39 (17:20) 5.28 (17:20) 0 0 0 0 0
22-02-2019 19.6 (15:20) 12.7 (00:00) 16.2 12.78 (08:50) 10 (08:50) 0 0 0 0 0
21-02-2019 17.7 (15:10) 13.4 (00:00) 15.6 16.67 (09:30) 11.67 (10:50) 0 0 0 0 0
20-02-2019 18.5 (15:00) 11.6 (00:00) 15.1 13.33 (20:20) 9.72 (19:10) 0 0 0 0 0

Gráficas

Temp. máximas Temp. mínimas Temp. medias Precipitaciones Rachas de viento máximas Velocidades máximas media en intervalos de 10 minutos

Datos horarios

Fecha y hora oficial Temperatura (ºC) Velocidad del viento (km/h) Dirección del viento Racha (km/h) Dirección de racha Precipitación (mm) Presión (hPa) Tendencia (hPa) Humedad (%)
2019-03-21 23:00:00 14 35 Este 47 Este 0 1023.4 0.8 67
2019-03-21 22:00:00 14.1 35 Este 45 Este 0 1023.1 0.6 67
2019-03-21 21:00:00 14.2 35 Este 50 Este 0 1022.8 0.8 63
2019-03-21 20:00:00 14.9 36 Este 53 Sudeste 0 1022.6 0.5 57
2019-03-21 19:00:00 16 36 Sudeste 51 Sudeste 0 1022.5 0.2 51
2019-03-21 18:00:00 16.6 37 Este 54 Sudeste 0 1022 -0.7 48
2019-03-21 17:00:00 17.1 41 Sudeste 55 Sudeste 0 1022.1 -1.4 45
2019-03-21 16:00:00 17.7 39 Este 52 Este 0 1022.3 -1.4 45
2019-03-21 15:00:00 17.2 38 Este 56 Sudeste 0 1022.7 -1.4 47
2019-03-21 14:00:00 17.3 25 Este 53 Este 0 1023.5 -0.8 45
2019-03-21 13:00:00 17.1 39 Este 55 Este 0 1023.7 -0.5 45
2019-03-21 12:00:00 17 36 Este 51 Este 0 1024.1 -0.1 47
2019-03-21 11:00:00 16.2 25 Este 44 Este 0 1024.3 0.6 50
2019-03-21 10:00:00 15.3 13 Nordeste 28 Este 0 1024.2 1 56
2019-03-21 09:00:00 13.4 15 Nordeste 24 Este 0 1024.2 1.4 63
2019-03-21 08:00:00 12.1 15 Nordeste 24 Nordeste 0 1023.7 1 69
2019-03-21 07:00:00 11.8 17 Nordeste 24 Nordeste 0 1023.2 0.7 72
2019-03-21 06:00:00 12.5 13 Nordeste 23 Nordeste 0 1022.8 0.1 71
2019-03-21 05:00:00 12.7 15 Nordeste 39 Este 0 1022.7 -0.3 73
2019-03-21 04:00:00 13.4 32 Este 50 Este 0 1022.5 -0.6 75
2019-03-21 03:00:00 13.4 36 Este 49 Este 0 1022.7 -0.7 72
2019-03-21 02:00:00 14 33 Este 46 Este 0 1023 -0.5 66
2019-03-21 01:00:00 14 32 Este 81 Este 0 1023.1 -0.4 66
2019-03-21 00:00:00 14.3 33 Sudeste 49 Este 0 1023.4 0 68
2019-03-20 23:00:00 14.2 35 Sudeste 49 Este 0 1023.5 0.6 67
2019-03-20 22:00:00 14.5 34 Sudeste 49 Sudeste 0 1023.5 0.9 66
2019-03-20 21:00:00 14.6 33 Este 49 Este 0 1023.4 1.5 63
2019-03-20 20:00:00 15.1 35 Este 52 Sudeste 0 1022.9 1.1 58
2019-03-20 19:00:00 16.1 40 Sudeste 53 Este 0 1022.6 0.6 54
2019-03-20 18:00:00 17 40 Sudeste 52 Este 0 1021.9 -0.5 53
2019-03-20 17:00:00 17.5 39 Este 57 Sudeste 0 1021.8 -1.3 51
2019-03-20 16:00:00 18 35 Sudeste 51 Sudeste 0 1022 -1.7 52
2019-03-20 15:00:00 18.1 35 Sudeste 48 Sudeste 0 1022.4 -1.7 50
2019-03-20 14:00:00 17.8 34 Este 44 Sudeste 0 1023.1 -1 48
2019-03-20 13:00:00 17.8 29 Este 44 Este 0 1023.7 -0.3 50
2019-03-20 12:00:00 17.5 31 Este 44 Este 0 1024.1 0.5 52
2019-03-20 11:00:00 17 29 Este 40 Este 0 1024.1 1 57
2019-03-20 10:00:00 16.2 24 Este 35 Este 0 1024 1.6 62
2019-03-20 09:00:00 14.4 11 Nordeste 18 Nordeste 0 1023.6 1.9 68
2019-03-20 08:00:00 13 12 Nordeste 20 Nordeste 0 1023.1 1.4 74
2019-03-20 07:00:00 13.7 10 Este 37 Este 0 1022.4 0.7 72
2019-03-20 06:00:00 14.5 29 Este 41 Este 0 1021.7 -0.5 72
2019-03-20 05:00:00 14.4 27 Este 35 Este 0 1021.7 -0.7 78
2019-03-20 04:00:00 14.7 26 Este 40 Este 0 1021.7 -0.8 77
2019-03-20 03:00:00 15 24 Este 33 Este 0 1022.2 -0.4 78
2019-03-20 02:00:00 15.2 22 Este 37 Este 0 1022.4 0.3 78
2019-03-20 01:00:00 15.3 20 Este 32 Este 0 1022.5 1.1 77
2019-03-20 00:00:00 15.5 23 Este 34 Este 0 1022.6 1.7 69
2019-03-19 23:00:00 17.4 15 Nordeste 29 Nordeste 0 1022.1 1.8 35
2019-03-19 22:00:00 17.6 15 Nordeste 27 Nordeste 0 1021.4 1.7 36
2019-03-19 21:00:00 18.6 17 Nordeste 28 Nordeste 0 1020.9 1.5 36
2019-03-19 20:00:00 19.1 10 Nordeste 32 Nordeste 0 1020.3 1 35
2019-03-19 19:00:00 20.5 19 Nordeste 36 Nordeste 0 1019.7 0.3 32
2019-03-19 18:00:00 21 21 Norte 37 Nordeste 0 1019.4 -0.4 32
2019-03-19 17:00:00 20.8 22 Norte 34 Norte 0 1019.3 -1.7 32
2019-03-19 16:00:00 20.6 18 Norte 26 Norte 0 1019.4 -2 36
2019-03-19 15:00:00 20 13 Norte 26 Noroeste 0 1019.8 -2.2 49
2019-03-19 14:00:00 18.4 14 Noroeste 22 Noroeste 0 1021 -1 63
2019-03-19 13:00:00 17.7 13 Norte 17 Norte 0 1021.4 -0.6 65
2019-03-19 12:00:00 17 10 Norte 17 Norte 0 1022 0.1 69
2019-03-19 11:00:00 16.5 10 Nordeste 18 Nordeste 0 1022 0.6 72
2019-03-19 10:00:00 15 12 Nordeste 21 Nordeste 0 1022 1.1 80
2019-03-19 09:00:00 13.6 10 Norte 14 Nordeste 0 1021.9 1 84
2019-03-19 08:00:00 12.9 9 Norte 12 Nordeste 0 1021.4 0.5 87
2019-03-19 07:00:00 13.5 8 Nordeste 13 Nordeste 0 1020.9 -0.3 83
2019-03-19 06:00:00 13.4 8 Nordeste 12 Este 0 1020.9 -0.8 83
2019-03-19 05:00:00 13.8 8 Nordeste 13 Nordeste 0 1020.9 -1.2 81
2019-03-19 04:00:00 14.1 7 Nordeste 17 Este 0 1021.2 -0.8 80
2019-03-19 03:00:00 14.8 8 Este 19 Este 0 1021.7 -0.4 79
2019-03-19 02:00:00 15.2 5 Este 19 Este 0 1022.1 0 78
2019-03-19 01:00:00 15.5 14 Sudeste 22 Sudeste 0 1022 0.1 77
2019-03-19 00:00:00 15.4 11 Sudeste 22 Sudeste 0 1022.1 0.5 76
2019-03-18 23:00:00 15.8 14 Sudeste 22 Sudeste 0 1022.1 0.9 75
2019-03-18 22:00:00 16.2 12 Sudeste 15 Sudeste 0 1021.9 1.3 75
2019-03-18 21:00:00 15.4 2 Sudoeste 5 Sudoeste 0 1021.6 1.5 73
2019-03-18 20:00:00 15.7 5 Oeste 13 Noroeste 0 1021.2 1.2 71
2019-03-18 19:00:00 16.7 10 Oeste 17 Oeste 0 1020.6 0.7 68
2019-03-18 18:00:00 17.1 13 Oeste 23 Oeste 0 1020.1 -0.3 64
2019-03-18 17:00:00 18.4 13 Oeste 22 Oeste 0 1020 -1.1 62
2019-03-18 16:00:00 17.8 17 Oeste 27 Oeste 0 1019.9 -1.2 63
2019-03-18 15:00:00 17.6 18 Oeste 28 Oeste 0 1020.4 -0.8 65
2019-03-18 14:00:00 17.1 15 Oeste 22 Oeste 0 1021.1 -0.4 65
2019-03-18 13:00:00 18.1 9 Oeste 14 Sudoeste 0 1021.1 -0.1 62
2019-03-18 12:00:00 17.8 2 Noroeste 9 Norte 0 1021.2 0.8 62
2019-03-18 11:00:00 16.2 6 Noroeste 12 Norte 0 1021.5 1.9 68
2019-03-18 10:00:00 14.6 12 Norte 22 Norte 0 1021.2 1.8 76
2019-03-18 09:00:00 14.1 19 Norte 24 Noroeste 0 1020.4 1.7 81
2019-03-18 08:00:00 13.9 17 Norte 24 Norte 0 1019.6 1.1 82
2019-03-18 07:00:00 14.3 19 Norte 24 Norte 0 1019.4 0.7 80
2019-03-18 06:00:00 14.4 23 Norte 28 Noroeste 0 1018.7 -0.4 80
2019-03-18 05:00:00 14.9 21 Noroeste 29 Noroeste 0 1018.5 -0.9 78
2019-03-18 04:00:00 15.5 22 Noroeste 32 Noroeste 0 1018.7 -0.8 76
2019-03-18 03:00:00 15.8 21 Noroeste 30 Noroeste 0 1019.1 -0.8 72
2019-03-18 02:00:00 16.2 21 Noroeste 30 Noroeste 0 1019.4 -0.4 68
2019-03-18 01:00:00 16.8 18 Noroeste 29 Noroeste 0 1019.5 -0.2 67
2019-03-18 00:00:00 17.2 19 Noroeste 28 Noroeste 0 1019.9 0.6 66
2019-03-17 23:00:00 17.3 14 Noroeste 22 Noroeste 0 1019.8 1 69
2019-03-17 22:00:00 17.1 13 Noroeste 24 Oeste 0 1019.7 1 72
2019-03-17 21:00:00 17 15 Oeste 26 Oeste 0 1019.3 0.7 72
2019-03-17 20:00:00 17.7 15 Noroeste 30 Noroeste 0 1018.8 -0.1 65
2019-03-17 19:00:00 18.5 17 Noroeste 26 Noroeste 0 1018.7 -0.4 58
2019-03-17 18:00:00 18.5 18 Oeste 30 Oeste 0 1018.6 -1.1 59
2019-03-17 17:00:00 18.7 16 Oeste 27 Noroeste 0 1018.9 -1.6 57
2019-03-17 16:00:00 19.6 13 Oeste 27 Noroeste 0 1019.1 -2 51
2019-03-17 15:00:00 17.1 20 Noroeste 27 Oeste 0 1019.7 -1.9 65
2019-03-17 14:00:00 17.7 12 Noroeste 18 Noroeste 0 1020.5 -1.2 64
2019-03-17 13:00:00 17.4 5 Norte 10 Noroeste 0 1021.1 -0.7 66
2019-03-17 12:00:00 16.2 6 Noroeste 13 Norte 0 1021.6 0.5 75
2019-03-17 11:00:00 14.6 10 Norte 16 Norte 0 1021.7 1.6 86
2019-03-17 10:00:00 14 8 Norte 14 Noroeste 0 1021.8 2.1 91
2019-03-17 09:00:00 13.3 3 Nordeste 10 Norte 0 1021.1 1.6 92
2019-03-17 08:00:00 13.1 0 Calma 8 Norte 0 1020.1 0.9 93
2019-03-17 07:00:00 13 3 Nordeste 8 Nordeste 0 1019.7 0.6 93
2019-03-17 06:00:00 13 4 Este 9 Nordeste 0 1019.5 0.3 92
2019-03-17 05:00:00 13.5 3 Nordeste 7 Nordeste 0 1019.2 0 92
2019-03-17 04:00:00 13.8 6 Norte 12 Norte 0 1019.1 -0.3 92
2019-03-17 03:00:00 14.4 3 Norte 8 Norte 0 1019.2 -0.6 93
2019-03-17 02:00:00 14.8 6 Norte 14 Norte 0 1019.2 -0.7 94
2019-03-17 01:00:00 15.5 8 Noroeste 14 Norte 0 1019.4 -0.5 91
2019-03-17 00:00:00 15.5 6 Oeste 9 Oeste 0 1019.8 0.2 90
2019-03-16 23:00:00 15.4 5 Oeste 13 Oeste 0 1019.9 0.7 90
2019-03-16 22:00:00 15.8 10 Oeste 15 Sudoeste 0 1019.9 0.9 89
2019-03-16 21:00:00 15.6 9 Sudoeste 15 Sudoeste 0 1019.6 0.6 89
2019-03-16 20:00:00 15.9 10 Oeste 15 Sudoeste 0 1019.2 0 87
2019-03-16 19:00:00 17.9 7 Sur 19 Sudoeste 0 1019 -0.2 79
2019-03-16 18:00:00 18.4 9 Sudoeste 25 Sudoeste 0 1019 -0.6 75
2019-03-16 17:00:00 19.3 14 Sudoeste 28 Sur 0 1019.2 -1 65
2019-03-16 16:00:00 20.7 14 Sur 27 Sur 0 1019.2 -1.7 58
2019-03-16 15:00:00 19.8 18 Sur 28 Sur 0 1019.6 -1.5 59
2019-03-16 14:00:00 20.2 17 Sur 28 Sur 0 1020.2 -0.9 56
2019-03-16 13:00:00 19.6 18 Sur 28 Sur 0 1020.9 -0.4 59
2019-03-16 12:00:00 19.8 9 Sudoeste 19 Sudeste 0 1021.1 -0.1 49
2019-03-16 11:00:00 20.4 6 Sudeste 9 Sudeste 0 1021.1 0.3 38
2019-03-16 10:00:00 18.5 5 Este 9 Este 0 1021.3 0.6 39
2019-03-16 09:00:00 16.2 5 Nordeste 12 Nordeste 0 1021.2 0.6 42
2019-03-16 08:00:00 14.8 7 Nordeste 13 Nordeste 0 1020.8 0.3 43
2019-03-16 07:00:00 14.6 7 Nordeste 12 Norte 0 1020.7 0 45
2019-03-16 06:00:00 14.1 8 Norte 14 Nordeste 0 1020.6 -0.9 51
2019-03-16 05:00:00 15.2 8 Nordeste 15 Nordeste 0 1020.5 -1.4 42
2019-03-16 04:00:00 14.8 9 Nordeste 14 Este 0 1020.7 -1.6 46
2019-03-16 03:00:00 15.6 5 Este 14 Este 0 1021.5 -1.1 44
2019-03-16 02:00:00 16 5 Este 30 Este 0 1021.9 -0.7 45
2019-03-16 01:00:00 16.7 21 Este 35 Este 0 1022.3 -0.3 45
2019-03-16 00:00:00 17.5 21 Este 31 Este 0 1022.6 0.3 45
2019-03-15 23:00:00 17.7 23 Sudeste 30 Sudeste 0 1022.6 0.5 44
2019-03-15 22:00:00 18 8 Este 16 Este 0 1022.6 0.7 42
2019-03-15 21:00:00 19 12 Sudeste 24 Sudeste 0 1022.3 0.6 42
2019-03-15 20:00:00 19.6 11 Sudeste 18 Sudeste 0 1022.1 0.4 45
2019-03-15 19:00:00 21.6 7 Sudoeste 14 Oeste 0 1021.9 -0.1 45
2019-03-15 18:00:00 22.4 10 Oeste 27 Sudeste 0 1021.7 -0.8 45
2019-03-15 17:00:00 23.9 6 Sudoeste 12 Oeste 0 1021.7 -1.5 40
2019-03-15 16:00:00 22.9 9 Oeste 13 Oeste 0 1022 -1.9 45
2019-03-15 15:00:00 22.3 10 Oeste 20 Oeste 0 1022.5 -1.9 44
2019-03-15 14:00:00 22.5 6 Sudoeste 26 Este 0 1023.2 -1.4 41
2019-03-15 13:00:00 22.3 17 Este 24 Este 0 1023.9 -0.7 41
2019-03-15 12:00:00 21.4 10 Este 30 Este 0 1024.4 -0.2 43
2019-03-15 11:00:00 19.7 15 Este 29 Este 0 1024.6 0.3 45
2019-03-15 10:00:00 16.8 7 Nordeste 11 Este 0 1024.6 0.6 53
2019-03-15 09:00:00 13 8 Norte 16 Norte 0 1024.6 0.8 70
2019-03-15 08:00:00 12.2 12 Norte 17 Nordeste 0 1024.3 0.5 72
2019-03-15 07:00:00 12.7 9 Norte 15 Norte 0 1024 0 72
2019-03-15 06:00:00 13.4 8 Nordeste 15 Nordeste 0 1023.8 -0.8 59
2019-03-15 05:00:00 13.2 9 Nordeste 16 Nordeste 0 1023.8 -0.9 63
2019-03-15 04:00:00 13.6 8 Nordeste 21 Nordeste 0 1024 -1.1 66
2019-03-15 03:00:00 14.1 9 Nordeste 22 Este 0 1024.6 -0.7 66
2019-03-15 02:00:00 14.6 15 Este 30 Este 0 1024.7 -0.8 73
2019-03-15 01:00:00 14.6 14 Este 25 Este 0 1025.1 -0.2 70
2019-03-15 00:00:00 15.2 15 Este 27 Este 0 1025.3 0.2 65
2019-03-14 23:00:00 15.7 14 Este 23 Este 0 1025.5 0.5 58
2019-03-14 22:00:00 16.7 13 Este 19 Sudeste 0 1025.3 0.7 53
2019-03-14 21:00:00 17.7 8 Este 13 Este 0 1025.1 0.6 53
2019-03-14 20:00:00 18.1 0 Calma 7 Sudoeste 0 1025 0.5 62
2019-03-14 19:00:00 19.9 5 Sudoeste 14 Oeste 0 1024.6 -0.3 61
2019-03-14 18:00:00 21.7 10 Oeste 17 Oeste 0 1024.5 -0.7 43
2019-03-14 17:00:00 22.3 10 Sudeste 19 Este 0 1024.5 -1.3 45
2019-03-14 16:00:00 22.1 15 Este 30 Sudeste 0 1024.9 -1.9 44
2019-03-14 15:00:00 21.3 22 Sudeste 33 Sudeste 0 1025.2 -2.2 45
2019-03-14 14:00:00 20.9 25 Sudeste 33 Sudeste 0 1025.8 -1.8 48
2019-03-14 13:00:00 18.1 11 Noroeste 15 Noroeste 0 1026.8 -0.6 62
2019-03-14 12:00:00 16.9 13 Noroeste 16 Noroeste 0 1027.4 0.5 67
2019-03-14 11:00:00 16.4 7 Nordeste 13 Nordeste 0 1027.6 1.4 64
2019-03-14 10:00:00 13.7 6 Norte 12 Norte 0 1027.4 1.5 72
2019-03-14 09:00:00 12 9 Norte 14 Norte 0 1026.9 1.3 77
2019-03-14 08:00:00 11.7 11 Norte 14 Norte 0 1026.2 0.7 80
2019-03-14 07:00:00 11.8 12 Norte 17 Nordeste 0 1025.9 0.3 81
2019-03-14 06:00:00 11.9 4 Nordeste 10 Norte 0 1025.6 -0.3 82
2019-03-14 05:00:00 12.2 4 Nordeste 9 Norte 0 1025.5 -0.3 82
2019-03-14 04:00:00 12.6 5 Nordeste 12 Este 0 1025.6 -0.1 81
2019-03-14 03:00:00 12.9 7 Nordeste 15 Norte 0 1025.9 -0.1 72
2019-03-14 02:00:00 14.6 10 Norte 15 Norte 0 1025.8 0.1 59
2019-03-14 01:00:00 14.7 6 Norte 10 Nordeste 0 1025.7 0.2 68
2019-03-14 00:00:00 15.8 6 Nordeste 17 Norte 0 1026 0.7 57
2019-03-13 23:00:00 17 11 Norte 15 Norte 0 1025.7 0.5 59
2019-03-13 22:00:00 16.8 6 Noroeste 12 Noroeste 0 1025.5 0.2 69
2019-03-13 21:00:00 16.9 8 Oeste 18 Oeste 0 1025.3 0.4 68
2019-03-13 20:00:00 17.1 13 Oeste 23 Oeste 0 1025.2 0.3 59
2019-03-13 19:00:00 17.6 14 Oeste 25 Oeste 0 1025.3 0.3 55
2019-03-13 18:00:00 17.9 18 Oeste 31 Oeste 0 1024.9 -0.6 50
2019-03-13 17:00:00 17.6 20 Oeste 31 Noroeste 0 1024.9 -1.4 59
2019-03-13 16:00:00 17.5 18 Oeste 28 Oeste 0 1025 -1.7 61
2019-03-13 15:00:00 16.5 21 Noroeste 32 Noroeste 0 1025.5 -1.4 62
2019-03-13 14:00:00 15.7 23 Noroeste 34 Noroeste 0 1026.3 -0.8 66
2019-03-13 13:00:00 15.2 24 Noroeste 34 Noroeste 0 1026.7 -0.2 68
2019-03-13 12:00:00 16.1 18 Noroeste 25 Noroeste 0 1026.9 0.6 68
2019-03-13 11:00:00 15.6 21 Noroeste 28 Norte 0 1027.1 1.5 69
2019-03-13 10:00:00 14.7 23 Noroeste 34 Norte 0 1026.9 1.9 74
2019-03-13 09:00:00 14.1 24 Noroeste 34 Norte 0 1026.3 1.6 80
2019-03-13 08:00:00 14 24 Noroeste 67 Noroeste 0 1025.6 1.1 79
2019-03-13 07:00:00 13.8 26 Norte 32 Norte 0 1025 0.2 79
2019-03-13 06:00:00 14.3 18 Noroeste 30 Noroeste 0 1024.7 -0.5 79
2019-03-13 05:00:00 14.9 17 Noroeste 24 Noroeste 0 1024.5 -0.8 78
2019-03-13 04:00:00 15.5 17 Noroeste 23 Norte 0 1024.8 -0.8 78
2019-03-13 03:00:00 16.1 18 Norte 24 Norte 0 1025.2 -0.8 77
2019-03-13 02:00:00 16.6 13 Noroeste 17 Noroeste 0 1025.3 -0.8 88
2019-03-13 01:00:00 16.4 6 Noroeste 12 Noroeste 0 1025.6 -0.4 91
2019-03-13 00:00:00 16.7 7 Noroeste 16 Noroeste 0 1026 0.4 90
2019-03-12 23:00:00 16.8 9 Noroeste 17 Noroeste 0 1026.1 1 88
2019-03-12 22:00:00 17 9 Noroeste 22 Noroeste 0 1026 0.7 84
2019-03-12 21:00:00 16.9 11 Noroeste 21 Noroeste 0 1025.6 0.5 84
2019-03-12 20:00:00 17.1 9 Oeste 20 Noroeste 0 1025.1 -0.3 80
2019-03-12 19:00:00 17.8 11 Noroeste 19 Oeste 0 1025.3 -0.3 75
2019-03-12 18:00:00 18.2 11 Noroeste 22 Noroeste 0 1025.1 -0.8 72
2019-03-12 17:00:00 18.4 15 Oeste 23 Noroeste 0 1025.4 -1.1 72
2019-03-12 16:00:00 18.3 17 Oeste 25 Noroeste 0 1025.6 -1.3 72
2019-03-12 15:00:00 19.2 15 Oeste 22 Oeste 0 1025.9 -1.3 71
2019-03-12 14:00:00 20.8 10 Sudoeste 17 Sudoeste 0 1026.5 -1.1 67
2019-03-12 13:00:00 19.2 10 Sudoeste 18 Sudoeste 0 1026.9 -0.8 63
2019-03-12 12:00:00 21.7 8 Este 16 Este 0 1027.2 0.1 56
2019-03-12 11:00:00 19.9 12 Este 18 Este 0 1027.6 0.8 63
2019-03-12 10:00:00 18.5 10 Este 28 Sudeste 0 1027.7 1 67
2019-03-12 09:00:00 16.5 19 Sudeste 33 Sudeste 0 1027.1 0.5 74
2019-03-12 08:00:00 15.5 24 Sudeste 36 Este 0 1026.8 0.5 78
2019-03-12 07:00:00 15.7 25 Sudeste 33 Este 0 1026.7 0.3 77
2019-03-12 06:00:00 15.7 25 Sudeste 40 Este 0 1026.6 -0.7 75
2019-03-12 05:00:00 16.4 26 Este 39 Este 0 1026.3 -1.3 72
2019-03-12 04:00:00 16.6 24 Sudeste 35 Sudeste 0 1026.4 -1.3 69
2019-03-12 03:00:00 16.5 19 Sudeste 26 Sudeste 0 1027.3 -0.7 60
2019-03-12 02:00:00 16.1 15 Sudeste 21 Sudeste 0 1027.6 -0.4 59
2019-03-12 01:00:00 16.4 16 Sudeste 23 Sudeste 0 1027.7 0.5 74
2019-03-12 00:00:00 16.7 12 Sudeste 17 Sudeste 0 1028 1.9 80
2019-03-11 23:00:00 18 13 Sudeste 17 Sudeste 0 1028 2.4 75
2019-03-11 22:00:00 19 9 Noroeste 22 Noroeste 0 1027.2 1.8 67
2019-03-11 21:00:00 20.7 13 Noroeste 19 Norte 0 1026.1 1.1 54
2019-03-11 20:00:00 20.9 13 Noroeste 21 Noroeste 0 1025.6 0.7 53
2019-03-11 19:00:00 21 13 Noroeste 26 Noroeste 0 1025.4 0.3 56
2019-03-11 18:00:00 20 18 Noroeste 27 Oeste 0 1025 -0.2 66
2019-03-11 17:00:00 19.7 21 Oeste 27 Oeste 0 1024.9 -1.1 67
2019-03-11 16:00:00 21.5 15 Oeste 20 Oeste 0 1025.1 -1.4 60
2019-03-11 15:00:00 22 15 Oeste 21 Oeste 0 1025.2 -1.5 57
2019-03-11 14:00:00 22.9 10 Oeste 13 Noroeste 0 1026 -1 56
2019-03-11 13:00:00 21.9 9 Noroeste 13 Noroeste 0 1026.5 -0.5 57
2019-03-11 12:00:00 20 7 Noroeste 9 Noroeste 0 1026.7 0 61
2019-03-11 11:00:00 17.8 6 Noroeste 12 Norte 0 1027 1 69
2019-03-11 10:00:00 15.6 7 Norte 14 Norte 0 1027 1.2 75
2019-03-11 09:00:00 13.8 8 Nordeste 11 Nordeste 0 1026.7 1 81
2019-03-11 08:00:00 13 8 Nordeste 12 Norte 0 1026 0.8 87
2019-03-11 07:00:00 13.8 7 Nordeste 11 Norte 0 1025.8 0.3 85
2019-03-11 06:00:00 13.9 9 Norte 12 Norte 0 1025.7 -0.2 81
2019-03-11 05:00:00 13.8 5 Norte 10 Norte 0 1025.2 -1 84
2019-03-11 04:00:00 14.1 0 Calma 4 Nordeste 0 1025.5 -1.3 82
2019-03-11 03:00:00 14.3 0 Calma 7 Este 0 1025.9 -1.2 83
2019-03-11 02:00:00 14.6 0 Calma 8 Este 0 1026.2 -1 83
2019-03-11 01:00:00 15.4 6 Este 8 Este 0 1026.8 -0.2 82
2019-03-11 00:00:00 16.2 0 Calma 6 Este 0 1027.1 0.4 84
2019-03-10 23:00:00 16.5 0 Calma 4 Oeste 0 1027.2 0.7 82
2019-03-10 22:00:00 17.2 0 Calma 8 Sudeste 0 1027 0.8 82
2019-03-10 21:00:00 18.3 3 Nordeste 12 Noroeste 0 1026.7 0.9 69
2019-03-10 20:00:00 18.8 2 Este 14 Sur 0 1026.5 0.1 69
2019-03-10 19:00:00 20 8 Sur 22 Sur 0 1026.2 -0.5 61
2019-03-10 18:00:00 22.6 9 Oeste 13 Noroeste 0 1025.8 -1.3 44
2019-03-10 17:00:00 24 7 Noroeste 10 Noroeste 0 1026.4 -1.8 41
2019-03-10 16:00:00 23 9 Noroeste 13 Noroeste 0 1026.7 -2.4 49
2019-03-10 15:00:00 22.1 10 Noroeste 18 Norte 0 1027.1 -2.4 50
2019-03-10 14:00:00 20.9 13 Noroeste 19 Norte 0 1028.2 -1.4 49
2019-03-10 13:00:00 20.2 10 Norte 13 Norte 0 1029.1 -0.6 52
2019-03-10 12:00:00 19.3 9 Nordeste 16 Nordeste 0 1029.5 0.2 47
2019-03-10 11:00:00 16.5 12 Norte 15 Norte 0 1029.6 0.9 59
2019-03-10 10:00:00 14.8 5 Nordeste 12 Este 0 1029.7 0.9 61
2019-03-10 09:00:00 12.4 8 Norte 12 Norte 0 1029.3 0.6 68
2019-03-10 08:00:00 11.7 8 Nordeste 13 Nordeste 0 1028.7 0.1 65
2019-03-10 07:00:00 12.5 7 Nordeste 12 Nordeste 0 1028.8 0.2 58
2019-03-10 06:00:00 12 8 Nordeste 13 Nordeste 0 1028.7 -0.5 63
2019-03-10 05:00:00 12.9 9 Nordeste 14 Nordeste 0 1028.6 -0.8 58
2019-03-10 04:00:00 13.5 10 Nordeste 16 Nordeste 0 1028.6 -1 52
2019-03-10 03:00:00 13.6 14 Norte 21 Norte 0 1029.2 -0.8 53
2019-03-10 02:00:00 14.5 6 Este 17 Este 0 1029.4 -0.6 51
2019-03-10 01:00:00 15 12 Este 23 Sudeste 0 1029.6 -0.3 49
2019-03-10 00:00:00 15.2 19 Este 26 Este 0 1030 0.4 51
2019-03-09 23:00:00 15.5 13 Este 25 Este 0 1030 0.8 50
2019-03-09 22:00:00 15.9 17 Este 28 Este 0 1029.9 1.3 51
2019-03-09 21:00:00 16.6 19 Este 28 Sudeste 0 1029.6 1.2 50
2019-03-09 20:00:00 17.7 17 Sudeste 26 Este 0 1029.2 0.6 50
2019-03-09 19:00:00 19.3 5 Sudeste 10 Sudoeste 0 1028.6 0 54
2019-03-09 18:00:00 21 0 Calma 17 Sudoeste 0 1028.4 -0.4 49
2019-03-09 17:00:00 21.6 6 Sudoeste 22 Sur 0 1028.6 -0.9 50
2019-03-09 16:00:00 20.2 8 Noroeste 13 Noroeste 0 1028.6 -1.6 50
2019-03-09 15:00:00 20 9 Noroeste 15 Noroeste 0 1028.8 -1.5 50
2019-03-09 14:00:00 18.8 12 Norte 14 Norte 0 1029.5 -0.7 54
2019-03-09 13:00:00 17.9 11 Norte 16 Norte 0 1030.2 0.1 59
2019-03-09 12:00:00 17.8 5 Norte 16 Este 0 1030.3 0.9 56
2019-03-09 11:00:00 17 5 Este 10 Este 0 1030.2 1.9 55
2019-03-09 10:00:00 13.7 8 Norte 10 Norte 0 1030.1 2.5 75
2019-03-09 09:00:00 12.8 4 Nordeste 7 Este 0 1029.4 2.4 82
2019-03-09 08:00:00 11.8 5 Este 11 Este 0 1028.3 1.4 86
2019-03-09 07:00:00 12 6 Nordeste 10 Nordeste 0 1027.6 0.4 87
2019-03-09 06:00:00 12.1 6 Norte 11 Norte 0 1027 -0.3 90
2019-03-09 05:00:00 13 6 Norte 10 Nordeste 0 1026.9 -0.3 85
2019-03-09 04:00:00 13.3 6 Nordeste 12 Este 0 1027.2 0.5 85
2019-03-09 03:00:00 13.5 4 Este 10 Nordeste 0 1027.3 0.6 84
2019-03-09 02:00:00 13.6 4 Nordeste 8 Nordeste 0 1027.2 1.1 84
2019-03-09 01:00:00 14.2 4 Norte 12 Norte 0 1026.7 1.1 83
2019-03-09 00:00:00 15.1 12 Norte 15 Norte 0 1026.7 1.7 79
2019-03-08 23:00:00 15.9 10 Norte 11 Norte 0 1026.1 2.2 82
2019-03-08 22:00:00 15.6 4 Noroeste 10 Noroeste 0 1025.6 2.6 78
2019-03-08 21:00:00 15.8 5 Noroeste 7 Noroeste 0 1025 2.4 78
2019-03-08 20:00:00 15.6 5 Oeste 9 Sudoeste 0 1023.9 1.7 73
2019-03-08 19:00:00 16.9 4 Oeste 11 Oeste 0 1023 1 66
2019-03-08 18:00:00 17.5 9 Oeste 14 Oeste 0 1022.6 0.3 66
2019-03-08 17:00:00 17.5 9 Oeste 14 Oeste 0 1022.2 0.1 66
2019-03-08 16:00:00 17.5 8 Sudoeste 17 Sur 0 1022 -0.1 66
2019-03-08 15:00:00 17 9 Sur 21 Sur 0 1022.3 0.5 69
2019-03-08 14:00:00 16.5 12 Sur 26 Sur 0 1022.1 0.5 71
2019-03-08 13:00:00 15.5 14 Sur 32 Sur 0 1022.1 1.4 80
2019-03-08 12:00:00 14.7 22 Sur 32 Sur 0 1021.8 2.2 85
2019-03-08 11:00:00 15.6 9 Sur 19 Sudeste 0 1021.6 2.8 80
2019-03-08 10:00:00 14.6 12 Sur 24 Sur 0 1020.7 2.4 85
2019-03-08 09:00:00 14.6 12 Sur 24 Sur 0 1019.6 1.5 86
2019-03-08 08:00:00 14.3 12 Sur 27 Sur 0.1 1018.8 0.9 88
2019-03-08 07:00:00 13.8 16 Sur 29 Sudoeste 1.8 1018.3 0.1 91
2019-03-08 06:00:00 13.8 11 Sudoeste 28 Sudoeste 2 1018.1 -0.4 88
2019-03-08 05:00:00 14.4 13 Sudoeste 28 Sudoeste 0 1017.9 -1 79
2019-03-08 04:00:00 14.8 12 Sur 24 Sur 0 1018.2 -0.7 76
2019-03-08 03:00:00 14.1 11 Sudoeste 28 Oeste 0.7 1018.5 -0.6 75
2019-03-08 02:00:00 14 8 Sudoeste 31 Sudoeste 0.1 1018.9 -0.4 79
2019-03-08 01:00:00 15.2 10 Sudoeste 19 Sudoeste 0 1018.9 -0.1 63
2019-03-08 00:00:00 15 10 Sudoeste 22 Sudoeste 0 1019.1 0.1 60
2019-03-07 23:00:00 15 11 Sudoeste 21 Sudoeste 0 1019.3 0.5 61
2019-03-07 22:00:00 14.6 9 Sudoeste 21 Sudoeste 0 1019 0.7 64
2019-03-07 21:00:00 14.6 13 Sudoeste 24 Sudoeste 0 1019 0.6 63
2019-03-07 20:00:00 14.6 11 Sudoeste 26 Sudoeste 0 1018.8 0.2 63
2019-03-07 19:00:00 15.3 13 Sudoeste 22 Sudoeste 0 1018.3 -0.9 59
2019-03-07 18:00:00 16 13 Sudoeste 20 Sudoeste 0 1018.4 -1.1 57
2019-03-07 17:00:00 17 11 Sudoeste 24 Oeste 0 1018.6 -1.7 56
2019-03-07 16:00:00 16.6 12 Sudoeste 22 Sudoeste 0 1019.2 -1.6 56
2019-03-07 15:00:00 16.3 10 Oeste 19 Oeste 0 1019.5 -1.8 59
2019-03-07 14:00:00 15.7 12 Oeste 19 Oeste 0 1020.3 -1.1 61
2019-03-07 13:00:00 16 11 Oeste 17 Sudoeste 0 1020.8 -0.1 59
2019-03-07 12:00:00 13.9 9 Norte 12 Norte 0 1021.3 1.1 72
2019-03-07 11:00:00 13.6 5 Noroeste 8 Norte 0 1021.4 1.6 73
2019-03-07 10:00:00 12.3 6 Norte 11 Norte 0 1020.9 1.6 78
2019-03-07 09:00:00 11.8 7 Norte 18 Norte 0 1020.2 1.2 81
2019-03-07 08:00:00 11.7 13 Norte 18 Norte 0 1019.8 1 81
2019-03-07 07:00:00 11.9 12 Norte 18 Norte 0 1019.3 0.3 79
2019-03-07 06:00:00 12.6 6 Norte 12 Norte 0 1019 0 81
2019-03-07 05:00:00 12.7 5 Norte 12 Norte 0 1018.8 -0.2 77
2019-03-07 04:00:00 13.1 8 Norte 21 Norte 0 1019 0 76
2019-03-07 03:00:00 14.2 17 Norte 25 Norte 0 1019 0.1 71
2019-03-07 02:00:00 14.3 14 Noroeste 25 Noroeste 0 1019 0.3 64
2019-03-07 01:00:00 14.6 18 Noroeste 34 Noroeste 0 1019 0.9 61
2019-03-07 00:00:00 14.9 18 Noroeste 40 Noroeste 0 1018.9 1.5 60
2019-03-06 23:00:00 15.1 19 Noroeste 34 Noroeste 0 1018.7 2.1 58
2019-03-06 22:00:00 15.1 17 Oeste 30 Noroeste 0 1018.1 2.2 60
2019-03-06 21:00:00 15.1 20 Oeste 36 Oeste 0 1017.4 2.2 60
2019-03-06 20:00:00 15.1 21 Oeste 36 Oeste 0 1016.6 2.4 62
2019-03-06 19:00:00 15.5 19 Oeste 37 Oeste 0 1015.9 2.3 60
2019-03-06 18:00:00 15.8 21 Oeste 37 Oeste 0 1015.2 2.6 63
2019-03-06 17:00:00 15.9 15 Oeste 37 Noroeste 0 1014.2 1.2 70
2019-03-06 16:00:00 15.2 21 Noroeste 47 Noroeste 0.1 1013.6 0.5 74
2019-03-06 15:00:00 15.9 26 Oeste 45 Sudoeste 0.6 1012.6 -0.7 80
2019-03-06 14:00:00 16.1 26 Sudoeste 46 Sudoeste 0.2 1013 -0.4 85
2019-03-06 13:00:00 16.5 23 Sudoeste 60 Sudoeste 0.1 1013.1 0.2 80
2019-03-06 12:00:00 15.5 31 Sur 59 Sur 2.2 1013.3 1.1 91
2019-03-06 11:00:00 15.9 27 Sur 49 Sur 1.1 1013.4 1.2 90
2019-03-06 10:00:00 16.6 24 Sur 47 Sur 0 1012.9 0.8 83
2019-03-06 09:00:00 16.4 28 Sur 48 Sudoeste 0 1012.2 -0.2 83
2019-03-06 08:00:00 16.3 25 Sur 45 Sur 0 1012.2 -0.2 82
2019-03-06 07:00:00 16.2 23 Sur 40 Sur 0 1012.1 -0.9 81
2019-03-06 06:00:00 16.1 23 Sur 40 Sur 0 1012.4 -1.3 81
2019-03-06 05:00:00 16 20 Sudoeste 35 Sudoeste 0 1012.4 -2 79
2019-03-06 04:00:00 16 19 Sur 30 Sur 0 1013 -1.4 79
2019-03-06 03:00:00 15.9 14 Sudoeste 27 Sudoeste 0 1013.7 -1.2 80
2019-03-06 02:00:00 15.7 14 Sudoeste 27 Sudoeste 0 1014.4 -0.4 83
2019-03-06 01:00:00 15.7 10 Sudoeste 21 Sudoeste 0 1014.4 -0.3 89
2019-03-06 00:00:00 15.7 8 Sudoeste 15 Sudoeste 0 1014.9 -0.4 90
2019-03-05 23:00:00 15.8 5 Sur 10 Sur 0 1014.8 -0.6 89
2019-03-05 22:00:00 16 4 Sur 9 Sudoeste 0 1014.7 -0.9 87
2019-03-05 21:00:00 16 5 Oeste 9 Oeste 0 1015.3 -0.6 85
2019-03-05 20:00:00 16.1 3 Oeste 9 Sudoeste 0 1015.4 -1.1 84
2019-03-05 19:00:00 16.5 6 Noroeste 15 Oeste 0 1015.6 -1.6 83
2019-03-05 18:00:00 17.2 12 Oeste 19 Sudoeste 0 1015.9 -1.9 77
2019-03-05 17:00:00 18.7 10 Oeste 19 Oeste 0 1016.5 -2.4 72
2019-03-05 16:00:00 18.1 10 Sudoeste 18 Sur 0 1017.2 -2.6 74
2019-03-05 15:00:00 17.8 11 Sur 23 Sur 0 1017.8 -2.7 76
2019-03-05 14:00:00 17.9 12 Sur 24 Sur 0 1018.9 -1.8 77
2019-03-05 13:00:00 17.5 14 Sur 23 Sur 0 1019.8 -1 80
2019-03-05 12:00:00 17.4 12 Sur 21 Sur 0 1020.5 0.2 79
2019-03-05 11:00:00 17.3 11 Sur 19 Sudoeste 0 1020.7 0.4 81
2019-03-05 10:00:00 16.9 10 Sur 20 Sudoeste 0 1020.8 0.7 83
2019-03-05 09:00:00 16.3 12 Sudoeste 21 Sudoeste 0 1020.3 0.3 85
2019-03-05 08:00:00 16.2 12 Sudoeste 23 Sudoeste 0 1020.3 0.3 86
2019-03-05 07:00:00 16.3 11 Sudoeste 23 Sur 0 1020.1 -0.3 85
2019-03-05 06:00:00 16.2 14 Sudoeste 23 Sudoeste 0 1020 -1.1 85
2019-03-05 05:00:00 16.1 9 Sudoeste 17 Sudoeste 0 1020 -1.5 89
2019-03-05 04:00:00 16 5 Sudoeste 19 Sudoeste 0 1020.4 -1.6 91
2019-03-05 03:00:00 16.2 7 Sudoeste 18 Sudoeste 0 1021.1 -1.2 91
2019-03-05 02:00:00 16.2 8 Sudoeste 17 Oeste 0 1021.5 -1.1 89
2019-03-05 01:00:00 16.3 12 Oeste 21 Sudoeste 0 1022 -0.4 87
2019-03-05 00:00:00 16.2 8 Sudoeste 21 Sudoeste 0 1022.3 0.3 86
2019-03-04 23:00:00 16.4 11 Oeste 20 Oeste 0 1022.6 0.5 84
2019-03-04 22:00:00 16.2 8 Oeste 15 Oeste 0 1022.4 0.3 81
2019-03-04 21:00:00 16.3 8 Oeste 15 Oeste 0 1022 -0.2 78
2019-03-04 20:00:00 16.7 9 Sudoeste 22 Oeste 0 1022.1 -0.3 73
2019-03-04 19:00:00 17 13 Oeste 21 Oeste 0 1022.1 -0.5 71
2019-03-04 18:00:00 17.6 11 Sudoeste 20 Sudoeste 0 1022.2 -1 68
2019-03-04 17:00:00 18.7 11 Sudoeste 16 Sudoeste 0 1022.4 -1.6 65
2019-03-04 16:00:00 17.8 9 Sudoeste 16 Sudoeste 0 1022.6 -2 67
2019-03-04 15:00:00 18.4 6 Sudoeste 14 Sudoeste 0 1023.2 -1.7 65
2019-03-04 14:00:00 17.9 7 Sudoeste 15 Sur 0 1024 -0.9 66
2019-03-04 13:00:00 17.2 8 Sudoeste 15 Sudoeste 0 1024.6 0.2 66
2019-03-04 12:00:00 16.6 8 Oeste 18 Oeste 0 1024.9 1 69
2019-03-04 11:00:00 14.5 5 Norte 12 Norte 0 1024.9 1.7 81
2019-03-04 10:00:00 14.2 9 Norte 25 Noroeste 0 1024.4 1.8 83
2019-03-04 09:00:00 13.5 17 Noroeste 24 Noroeste 0 1023.9 1.6 85
2019-03-04 08:00:00 14.2 13 Noroeste 19 Noroeste 0 1023.2 0.8 84
2019-03-04 07:00:00 14 8 Oeste 12 Oeste 0 1022.6 -0.1 83
2019-03-04 06:00:00 14 6 Oeste 15 Noroeste 0 1022.3 -0.7 83
2019-03-04 05:00:00 14.5 5 Sur 16 Sudeste 0 1022.4 -0.9 91
2019-03-04 04:00:00 14.1 10 Sur 18 Sur 0 1022.7 -0.5 90
2019-03-04 03:00:00 14.8 11 Sudeste 15 Sudeste 0 1023 -0.2 90
2019-03-04 02:00:00 14.6 5 Sur 10 Sur 0 1023.3 0.1 90
2019-03-04 01:00:00 14.8 3 Sudoeste 10 Sudoeste 0 1023.2 0.2 90
2019-03-04 00:00:00 14.7 2 Sudoeste 3 Sudoeste 0 1023.2 0.4 89
2019-03-03 23:00:00 14.9 0 Calma 7 Oeste 0 1023.2 0.6 89
2019-03-03 22:00:00 15.3 6 Noroeste 12 Oeste 0 1023 0.5 88
2019-03-03 21:00:00 15.5 7 Oeste 18 Oeste 0 1022.8 0.8 88
2019-03-03 20:00:00 15.9 12 Oeste 19 Oeste 0 1022.6 0.5 85
2019-03-03 19:00:00 16.4 10 Oeste 19 Oeste 0 1022.5 0.1 81
2019-03-03 18:00:00 17.2 12 Sudoeste 21 Sudoeste 0 1022 -0.9 75
2019-03-03 17:00:00 18.6 12 Oeste 18 Oeste 0 1022.1 -1.7 68
2019-03-03 16:00:00 18.9 11 Sudoeste 16 Sudoeste 0 1022.4 -2 65
2019-03-03 15:00:00 19.3 8 Sudoeste 14 Oeste 0 1022.9 -1.7 65
2019-03-03 14:00:00 18.7 8 Sudoeste 17 Sudoeste 0 1023.8 -0.9 61
2019-03-03 13:00:00 18.6 9 Sudoeste 13 Oeste 0 1024.4 -0.4 59
2019-03-03 12:00:00 17 5 Noroeste 8 Noroeste 0 1024.6 0.2 72
2019-03-03 11:00:00 15.3 4 Noroeste 10 Norte 0 1024.7 0.8 77
2019-03-03 10:00:00 13.4 8 Nordeste 11 Nordeste 0 1024.8 1.3 81
2019-03-03 09:00:00 11.3 6 Norte 10 Norte 0 1024.4 1.2 90
2019-03-03 08:00:00 11.8 4 Norte 9 Nordeste 0 1023.9 0.8 91
2019-03-03 07:00:00 11.7 5 Norte 7 Norte 0 1023.5 0.1 91
2019-03-03 06:00:00 11.9 4 Norte 7 Norte 0 1023.2 -0.4 91
2019-03-03 05:00:00 12.1 4 Norte 7 Norte 0 1023.1 -0.8 91
2019-03-03 04:00:00 12.8 5 Norte 7 Norte 0 1023.4 -0.8 91
2019-03-03 03:00:00 12.7 0 Calma 6 Este 0 1023.6 -0.7 90
2019-03-03 02:00:00 13 2 Nordeste 5 Nordeste 0 1023.9 -0.8 90
2019-03-03 01:00:00 13.4 3 Este 7 Norte 0 1024.2 -0.3 90
2019-03-03 00:00:00 14.4 5 Norte 10 Norte 0 1024.3 -0.2 90
2019-03-02 23:00:00 13.7 3 Noroeste 4 Oeste 0 1024.7 0.1 85
2019-03-02 22:00:00 14.4 0 Calma 5 Noroeste 0 1024.5 0.2 84
2019-03-02 21:00:00 14.6 4 Oeste 7 Oeste 0 1024.5 -0.1 82
2019-03-02 20:00:00 14.7 3 Oeste 10 Sudoeste 0 1024.6 -0.2 79
2019-03-02 19:00:00 15.4 6 Sudoeste 12 Oeste 0 1024.3 -0.6 75
2019-03-02 18:00:00 17.1 7 Oeste 14 Oeste 0 1024.6 -0.7 68
2019-03-02 17:00:00 17.2 9 Oeste 15 Oeste 0 1024.8 -1.2 67
2019-03-02 16:00:00 17.4 9 Oeste 17 Oeste 0 1024.9 -2.2 66
2019-03-02 15:00:00 17.1 8 Sudoeste 15 Sudoeste 0 1025.3 -1.8 66
2019-03-02 14:00:00 17.6 6 Sudoeste 13 Sudoeste 0 1026 -0.6 65
2019-03-02 13:00:00 16.9 6 Sudoeste 17 Oeste 0 1027.1 1 69
2019-03-02 12:00:00 15.7 9 Sudoeste 20 Sudoeste 0 1027.1 1.3 75
2019-03-02 11:00:00 15.7 12 Sudoeste 19 Sur 0 1026.6 1.3 77
2019-03-02 10:00:00 14.5 9 Sur 15 Sur 0 1026.1 1.4 84
2019-03-02 09:00:00 13 2 Este 7 Este 0 1025.8 1.1 88
2019-03-02 08:00:00 12.4 4 Norte 6 Norte 0 1025.3 0.4 88
2019-03-02 07:00:00 12.8 0 Calma 5 Nordeste 0 1024.7 -0.7 87
2019-03-02 06:00:00 13.5 4 Norte 13 Noroeste 0 1024.7 -0.8 87
2019-03-02 05:00:00 14.1 10 Noroeste 16 Noroeste 0 1024.9 -0.7 85
2019-03-02 04:00:00 14.6 9 Noroeste 21 Noroeste 0 1025.4 -0.1 84
2019-03-02 03:00:00 15 10 Noroeste 17 Noroeste 0 1025.5 -0.1 86
2019-03-02 02:00:00 15.2 7 Sudoeste 14 Sudoeste 0 1025.6 -0.2 86
2019-03-02 01:00:00 14.9 7 Sudoeste 12 Sur 0 1025.5 0 81
2019-03-02 00:00:00 14.8 7 Sudoeste 14 Sudoeste 0 1025.6 0.4 78
2019-03-01 23:00:00 14.9 9 Sudoeste 17 Sudoeste 0 1025.8 0.9 78
2019-03-01 22:00:00 15.1 9 Sudoeste 16 Sudoeste 0 1025.5 1 77
2019-03-01 21:00:00 15.2 10 Sudoeste 15 Sudoeste 0 1025.2 1.1 82
2019-03-01 20:00:00 15.1 8 Sudoeste 12 Sudoeste 0 1024.9 0.5 78
2019-03-01 19:00:00 16.4 9 Sudoeste 15 Sudoeste 0 1024.5 -0.3 68
2019-03-01 18:00:00 17.7 9 Oeste 16 Oeste 0 1024.1 -0.8 60
2019-03-01 17:00:00 17.7 11 Oeste 18 Oeste 0 1024.4 -0.9 62
2019-03-01 16:00:00 17.6 9 Oeste 20 Oeste 0 1024.8 -1.2 68
2019-03-01 15:00:00 18.5 10 Sudoeste 19 Sudoeste 0 1024.9 -1.1 66
2019-03-01 14:00:00 18 9 Sudoeste 17 Sudoeste 0 1025.3 -0.6 69
2019-03-01 13:00:00 18 13 Oeste 20 Oeste 0 1026 0.2 70
2019-03-01 12:00:00 17.1 10 Sudoeste 18 Sudoeste 0 1026 0.5 77
2019-03-01 11:00:00 16 9 Sur 16 Sur 0 1025.9 1.4 89
2019-03-01 10:00:00 13.7 5 Sudeste 9 Sudeste 0 1025.8 1.2 92
2019-03-01 09:00:00 12.2 7 Sudeste 13 Sudeste 0 1025.5 0.8 93
2019-03-01 08:00:00 12.3 9 Sudeste 13 Sudeste 0 1024.5 0 93
2019-03-01 07:00:00 12.4 6 Sudeste 9 Sudeste 0 1024.6 -0.1 92
2019-03-01 06:00:00 11.7 4 Este 7 Este 0 1024.7 -0.4 90
2019-03-01 05:00:00 11.5 3 Este 8 Este 0 1024.5 -0.6 90
2019-03-01 04:00:00 13 6 Sudeste 8 Sudeste 0 1024.7 -0.7 89
2019-03-01 03:00:00 12.9 6 Sudeste 7 Sudeste 0 1025.1 -0.8 89
2019-03-01 02:00:00 13.3 4 Sudeste 6 Sudeste 0 1025.1 -0.9 89
2019-03-01 01:00:00 13.7 4 Este 6 Sudeste 0 1025.4 -0.9 89
2019-03-01 00:00:00 14 5 Sudeste 8 Sudeste 0 1025.9 -0.2 88
2019-02-28 23:00:00 15.4 3 Este 15 Noroeste 0 1026 0.1 85
2019-02-28 22:00:00 15.6 10 Noroeste 20 Noroeste 0 1026.3 0.7 85
2019-02-28 21:00:00 15.6 14 Noroeste 23 Noroeste 0 1026.1 0.4 82
2019-02-28 20:00:00 16 13 Oeste 21 Oeste 0 1025.9 0 72
2019-02-28 19:00:00 16.4 14 Oeste 22 Oeste 0 1025.6 -1 64
2019-02-28 18:00:00 17.2 15 Oeste 24 Oeste 0 1025.7 -1.4 61
2019-02-28 17:00:00 17.4 17 Oeste 24 Oeste 0 1025.9 -1.9 65
2019-02-28 16:00:00 18.4 14 Oeste 22 Oeste 0 1026.6 -2 61
2019-02-28 15:00:00 18.5 14 Oeste 19 Oeste 0 1027.1 -1.7 57
2019-02-28 14:00:00 17.6 14 Oeste 21 Oeste 0 1027.8 -1 59
2019-02-28 13:00:00 17.4 6 Sudoeste 12 Sur 0 1028.6 0 54
2019-02-28 12:00:00 16.2 4 Norte 6 Norte 0 1028.8 0.7 57
2019-02-28 11:00:00 13.4 3 Noroeste 5 Norte 0 1028.8 1.2 68
2019-02-28 10:00:00 10.7 4 Norte 9 Norte 0 1028.6 1.5 77
2019-02-28 09:00:00 9.5 5 Norte 10 Nordeste 0 1028.1 1.2 77
2019-02-28 08:00:00 9.6 6 Nordeste 9 Norte 0 1027.6 0.7 84
2019-02-28 07:00:00 10.5 8 Norte 10 Norte 0 1027.1 0.2 80
2019-02-28 06:00:00 10.5 7 Norte 9 Nordeste 0 1026.9 -0.4 79
2019-02-28 05:00:00 11 6 Norte 9 Norte 0 1026.9 -0.7 78
2019-02-28 04:00:00 11 6 Norte 9 Norte 0 1026.9 -1.2 78
2019-02-28 03:00:00 12.3 3 Norte 8 Norte 0 1027.3 -0.8 79
2019-02-28 02:00:00 13.1 8 Norte 9 Norte 0 1027.6 -0.4 75
2019-02-28 01:00:00 12.7 4 Este 6 Este 0 1028.1 0.3 75
2019-02-28 00:00:00 13.2 2 Este 6 Nordeste 0 1028.1 0.8 70
2019-02-27 23:00:00 14.2 6 Nordeste 13 Norte 0 1028 0.9 75
2019-02-27 22:00:00 15.2 7 Norte 12 Noroeste 0 1027.8 0.9 76
2019-02-27 21:00:00 15.1 6 Norte 11 Norte 0 1027.3 0.8 81
2019-02-27 20:00:00 16 3 Sudoeste 7 Sur 0 1027.1 0.6 63
2019-02-27 19:00:00 17.1 0 Calma 13 Sudoeste 0 1026.9 0.2 61
2019-02-27 18:00:00 17.7 8 Sudoeste 19 Sur 0 1026.5 -0.2 59
2019-02-27 17:00:00 18.9 10 Sur 21 Sudoeste 0 1026.5 -0.5 53
2019-02-27 16:00:00 18.6 13 Sur 23 Sur 0 1026.7 -0.7 53
2019-02-27 15:00:00 19.2 10 Sudoeste 20 Sur 0 1026.7 -1.2 51
2019-02-27 14:00:00 19.4 8 Sudoeste 21 Oeste 0 1027 -0.6 54
2019-02-27 13:00:00 19.7 7 Sudeste 18 Sudeste 0 1027.4 0.9 44
2019-02-27 12:00:00 18.3 15 Sudeste 22 Sudeste 0 1027.9 1.7 45
2019-02-27 11:00:00 17.1 23 Sudeste 47 Sudeste 0 1027.6 2.5 45
2019-02-27 10:00:00 15.8 26 Sudeste 35 Sudeste 0 1026.5 1.4 48
2019-02-27 09:00:00 14.7 20 Sudeste 37 Sudeste 0 1026.2 1.2 51
2019-02-27 08:00:00 14.4 30 Sudeste 39 Sudeste 0 1025.1 -0.2 50
2019-02-27 07:00:00 14.1 30 Sudeste 42 Sudeste 0 1025.1 -0.6 51
2019-02-27 06:00:00 13.6 26 Sudeste 36 Sudeste 0 1025 -0.9 55
2019-02-27 05:00:00 13.2 21 Sudeste 29 Sudeste 0 1025.3 -0.5 63
2019-02-27 04:00:00 13.3 24 Sudeste 41 Sudeste 0 1025.7 -0.4 68
2019-02-27 03:00:00 13.3 28 Sudeste 43 Sudeste 0 1025.9 0.2 70
2019-02-27 02:00:00 13.5 31 Sudeste 40 Sudeste 0 1025.8 0.1 71
2019-02-27 01:00:00 13.6 29 Sudeste 45 Sudeste 0 1026.1 0.6 69
2019-02-27 00:00:00 13.9 35 Sudeste 48 Sudeste 0 1025.7 0.9 65
2019-02-26 23:00:00 14.1 31 Sudeste 48 Sudeste 0 1025.7 0.9 63
2019-02-26 22:00:00 14.5 34 Sudeste 54 Sudeste 0 1025.5 1 58
2019-02-26 21:00:00 14.5 40 Sudeste 54 Sudeste 0 1024.8 0.5 61
2019-02-26 20:00:00 15.1 38 Sudeste 56 Sudeste 0 1024.8 0.5 54
2019-02-26 19:00:00 16.5 35 Sudeste 55 Este 0 1024.5 0 48
2019-02-26 18:00:00 17.9 39 Sudeste 55 Sudeste 0 1024.3 -0.4 45
2019-02-26 17:00:00 18.2 45 Sudeste 55 Este 0 1024.3 -1.4 45
2019-02-26 16:00:00 18.1 38 Sudeste 57 Sudeste 0 1024.5 -1.8 51
2019-02-26 15:00:00 18.1 38 Sudeste 50 Sudeste 0 1024.7 -1.7 53
2019-02-26 14:00:00 17.6 32 Sudeste 50 Este 0 1025.7 0.1 57
2019-02-26 13:00:00 17 32 Este 48 Este 0 1026.3 0.4 59
2019-02-26 12:00:00 16.4 33 Sudeste 46 Este 0 1026.4 0.8 62
2019-02-26 11:00:00 15.5 35 Este 49 Este 0 1025.6 0.5 65
2019-02-26 10:00:00 14.6 30 Este 44 Este 0 1025.9 0.8 68
2019-02-26 09:00:00 13.6 27 Este 39 Este 0 1025.6 0.7 72
2019-02-26 08:00:00 12.9 27 Este 38 Este 0 1025.1 0 74
2019-02-26 07:00:00 12.9 27 Este 39 Este 0 1025.1 -0.3 72
2019-02-26 06:00:00 13 25 Este 39 Este 0 1024.9 -0.3 70
2019-02-26 05:00:00 13 25 Este 33 Este 0 1025.1 -0.4 69
2019-02-26 04:00:00 13.3 23 Este 51 Este 0 1025.4 -0.5 66
2019-02-26 03:00:00 13.4 35 Este 53 Este 0 1025.2 -0.7 68
2019-02-26 02:00:00 13.6 39 Este 59 Este 0 1025.5 -0.4 68
2019-02-26 01:00:00 13.8 43 Este 62 Este 0 1025.9 0 66
2019-02-26 00:00:00 13.9 44 Este 64 Sudeste 0 1025.9 0.2 66
2019-02-25 23:00:00 14.3 43 Sudeste 59 Este 0 1025.9 -0.4 63
2019-02-25 22:00:00 14.4 37 Este 62 Este 0 1025.9 -0.2 60
2019-02-25 21:00:00 14.7 44 Este 62 Este 0 1025.7 -0.5 58
2019-02-25 20:00:00 15.2 36 Este 57 Este 0 1026.3 0 57
2019-02-25 19:00:00 15.7 37 Este 60 Este 0 1026.1 -0.3 58
2019-02-25 18:00:00 16.7 47 Este 64 Este 0 1026.2 -0.9 54
2019-02-25 17:00:00 17.2 45 Este 59 Este 0 1026.3 -1.4 53
2019-02-25 16:00:00 17.4 45 Este 58 Este 0 1026.4 -2.1 54
2019-02-25 15:00:00 17.4 45 Este 60 Este 0 1027.1 -1.8 54
2019-02-25 14:00:00 17.6 37 Este 58 Este 0 1027.7 -1 58
2019-02-25 13:00:00 17.3 41 Este 59 Este 0 1028.5 0.2 59
2019-02-25 12:00:00 16.8 44 Este 63 Sudeste 0 1028.9 0.9 62
2019-02-25 11:00:00 16 36 Este 59 Este 0 1028.7 1.6 64
2019-02-25 10:00:00 15.5 32 Este 51 Este 0 1028.3 1.3 69
2019-02-25 09:00:00 14.5 22 Este 46 Este 0 1028 0.9 74
2019-02-25 08:00:00 13.8 32 Este 51 Este 0 1027.1 -0.2 75
2019-02-25 07:00:00 13.9 35 Este 53 Este 0 1027 -1.1 75
2019-02-25 06:00:00 14.1 39 Este 58 Este 0 1027.1 -1.4 74
2019-02-25 05:00:00 13.9 34 Este 46 Este 0 1027.3 -1.3 73
2019-02-25 04:00:00 13.9 30 Este 40 Este 0 1028.1 -0.8 72
2019-02-25 03:00:00 14.1 27 Este 45 Este 0 1028.5 -0.2 72
2019-02-25 02:00:00 14.4 28 Este 39 Este 0 1028.6 0.2 74
2019-02-25 01:00:00 14.2 17 Este 45 Este 0 1028.9 0.9 74
2019-02-25 00:00:00 14.5 22 Este 35 Este 0 1028.7 1.2 73
2019-02-24 23:00:00 14.6 26 Este 38 Este 0 1028.4 1.3 72
2019-02-24 22:00:00 14.8 27 Este 45 Este 0 1028 1.3 73
2019-02-24 21:00:00 15.1 35 Este 51 Este 0 1027.5 1.2 71
2019-02-24 20:00:00 15.5 38 Este 50 Este 0 1027.1 0.6 68
2019-02-24 19:00:00 16.3 35 Este 51 Este 0 1026.7 0.4 62
2019-02-24 18:00:00 17.7 37 Este 48 Este 0 1026.3 -0.3 54
2019-02-24 17:00:00 18.3 34 Este 53 Sudeste 0 1026.5 -0.4 51
2019-02-24 16:00:00 18.4 39 Sudeste 48 Sudeste 0 1026.3 -0.9 54
2019-02-24 15:00:00 19.5 34 Este 48 Este 0 1026.6 -1 48
2019-02-24 14:00:00 19.6 28 Este 42 Sudeste 0 1026.9 -0.2 47
2019-02-24 13:00:00 19 26 Sudeste 44 Este 0 1027.2 0.4 55
2019-02-24 12:00:00 17.8 20 Sudeste 27 Sudeste 0 1027.6 1.7 62
2019-02-24 11:00:00 15.8 3 Este 6 Este 0 1027.1 2.4 56
2019-02-24 10:00:00 12.8 4 Norte 9 Norte 0 1026.8 2.2 66
2019-02-24 09:00:00 11.5 7 Norte 12 Norte 0 1025.9 1.6 69
2019-02-24 08:00:00 11.1 7 Nordeste 11 Nordeste 0 1024.7 0.3 66
2019-02-24 07:00:00 11.4 7 Nordeste 14 Norte 0 1024.6 0.1 67
2019-02-24 06:00:00 13.2 13 Norte 18 Norte 0 1024.3 -0.5 66
2019-02-24 05:00:00 13.8 12 Norte 15 Norte 0 1024.4 -0.9 72
2019-02-24 04:00:00 13.6 11 Norte 14 Norte 0 1024.5 -1.2 66
2019-02-24 03:00:00 13.7 9 Norte 14 Norte 0 1024.8 -1 72
2019-02-24 02:00:00 14.1 7 Norte 9 Norte 0 1025.3 -0.7 71
2019-02-24 01:00:00 14.3 8 Nordeste 13 Norte 0 1025.7 -0.3 68
2019-02-24 00:00:00 15.4 9 Norte 17 Norte 0 1025.8 0 79
2019-02-23 23:00:00 15.7 13 Noroeste 18 Noroeste 0 1026 0 71
2019-02-23 22:00:00 16.4 14 Noroeste 18 Norte 0 1026 0.5 63
2019-02-23 21:00:00 16.6 13 Noroeste 21 Norte 0 1025.8 0.3 64
2019-02-23 20:00:00 17 13 Noroeste 23 Noroeste 0 1026 0.2 64
2019-02-23 19:00:00 17.7 12 Norte 18 Norte 0 1025.5 -0.6 61
2019-02-23 18:00:00 20.4 15 Norte 23 Norte 0 1025.5 -1.1 38
2019-02-23 17:00:00 19.2 14 Norte 19 Norte 0 1025.8 -1.5 53
2019-02-23 16:00:00 19.4 14 Norte 17 Norte 0 1026.1 -2.2 53
2019-02-23 15:00:00 20.1 14 Norte 18 Norte 0 1026.6 -2.5 49
2019-02-23 14:00:00 19.9 9 Noroeste 12 Norte 0 1027.3 -1.8 50
2019-02-23 13:00:00 18.9 5 Norte 9 Noroeste 0 1028.3 -0.8 59
2019-02-23 12:00:00 17.2 2 Noroeste 10 Nordeste 0 1029.1 0.4 61
2019-02-23 11:00:00 14.3 5 Nordeste 9 Nordeste 0 1029.1 0.9 69
2019-02-23 10:00:00 11.3 5 Norte 9 Nordeste 0 1029.1 0.8 78
2019-02-23 09:00:00 10.5 7 Norte 12 Nordeste 0 1028.7 0.6 81
2019-02-23 08:00:00 11 6 Nordeste 10 Nordeste 0 1028.2 0.2 78
2019-02-23 07:00:00 11.7 7 Norte 9 Norte 0 1028.3 0.3 76
2019-02-23 06:00:00 11.7 4 Nordeste 14 Norte 0 1028.1 -0.4 75
2019-02-23 05:00:00 11.8 10 Norte 12 Norte 0 1028 -0.8 78
2019-02-23 04:00:00 11.3 9 Norte 12 Nordeste 0 1028 -0.9 80
2019-02-23 03:00:00 11.9 7 Norte 9 Norte 0 1028.5 -0.7 76
2019-02-23 02:00:00 12 3 Nordeste 8 Este 0 1028.8 -0.6 72
2019-02-23 01:00:00 12.6 7 Este 10 Este 0 1028.9 0.2 69
2019-02-23 00:00:00 12.7 2 Nordeste 8 Nordeste 0 1029.2 0.8 68
2019-02-22 23:00:00 13.3 2 Nordeste 21 Este 0 1029.4 1.1 66
2019-02-22 22:00:00 14.3 18 Este 25 Sudeste 0 1028.7 0.6 66
2019-02-22 21:00:00 14.9 23 Sudeste 30 Sudeste 0 1028.4 0.8 63
2019-02-22 20:00:00 15.9 19 Este 26 Sudeste 0 1028.3 0.6 57
2019-02-22 19:00:00 16.9 9 Sudeste 25 Este 0 1028.1 0.4 57
2019-02-22 18:00:00 18.1 19 Este 24 Este 0 1027.6 0 54
2019-02-22 17:00:00 19.1 18 Este 26 Este 0 1027.7 -0.5 56
2019-02-22 16:00:00 19 15 Este 27 Este 0 1027.7 -0.9 58
2019-02-22 15:00:00 19.3 19 Este 28 Este 0 1027.6 -1.8 54
2019-02-22 14:00:00 18.6 24 Este 37 Este 0 1028.2 -0.5 57
2019-02-22 13:00:00 17.5 28 Este 39 Este 0 1028.6 0.1 62
2019-02-22 12:00:00 17.1 20 Este 41 Sudeste 0 1029.4 1.8 63
2019-02-22 11:00:00 15.9 27 Sudeste 44 Sudeste 0 1028.7 1.3 68
2019-02-22 10:00:00 14.7 32 Sudeste 44 Sudeste 0 1028.5 1 73
2019-02-22 09:00:00 13.8 33 Sudeste 46 Sudeste 0 1027.6 -0.1 76
2019-02-22 08:00:00 13.5 31 Sudeste 42 Sudeste 0 1027.4 -0.5 77
2019-02-22 07:00:00 13.6 29 Sudeste 40 Este 0 1027.5 -0.8 76
2019-02-22 06:00:00 13.5 24 Este 34 Este 0 1027.7 -0.3 76
2019-02-22 05:00:00 13.6 20 Este 26 Este 0 1027.9 -0.1 75
2019-02-22 04:00:00 13.7 14 Este 39 Sudeste 0 1028.3 0.3 75
2019-02-22 03:00:00 13.8 27 Este 44 Sudeste 0 1028 0 75
2019-02-22 02:00:00 14 33 Sudeste 45 Sudeste 0 1028 0.1 73
2019-02-22 01:00:00 13.9 29 Sudeste 38 Sudeste 0 1028 0.5 75
2019-02-22 00:00:00 13.9 26 Sudeste 45 Sudeste 0 1028 0.8 74
2019-02-21 23:00:00 14.1 31 Sudeste 49 Este 0 1027.9 1.6 74
2019-02-21 22:00:00 14.1 35 Sudeste 45 Este 0 1027.5 2.3 72
2019-02-21 21:00:00 14.3 28 Sudeste 42 Sudeste 0 1027.2 1.9 68
2019-02-21 20:00:00 14.9 31 Sudeste 45 Sudeste 0 1026.3 1.2 63
2019-02-21 19:00:00 15.4 33 Sudeste 47 Sudeste 0 1025.2 0.3 63
2019-02-21 18:00:00 16.4 33 Sudeste 44 Este 0 1025.3 0.3 62
2019-02-21 17:00:00 17.2 30 Este 47 Este 0 1025.1 0.5 60
2019-02-21 16:00:00 17.4 32 Este 46 Sudeste 0 1024.9 0 60
2019-02-21 15:00:00 17.6 37 Sudeste 49 Sudeste 0 1025 0.1 59
2019-02-21 14:00:00 17.3 38 Sudeste 51 Este 0 1024.6 0.4 62
2019-02-21 13:00:00 17.1 39 Sudeste 51 Este 0 1024.9 1 61
2019-02-21 12:00:00 16.6 40 Sudeste 53 Sudeste 0 1024.9 1.7 63
2019-02-21 11:00:00 15.7 38 Sudeste 53 Sudeste 0 1024.2 1.6 65
2019-02-21 10:00:00 14.8 38 Sudeste 60 Este 0 1023.9 1.4 70
2019-02-21 09:00:00 13.8 38 Sudeste 53 Sudeste 0 1023.2 0.4 73
2019-02-21 08:00:00 13.6 37 Sudeste 51 Sudeste 0 1022.6 -0.2 73
2019-02-21 07:00:00 13.7 35 Sudeste 47 Sudeste 0 1022.5 -0.4 73
2019-02-21 06:00:00 13.5 27 Sudeste 36 Sudeste 0 1022.8 -0.2 72
2019-02-21 05:00:00 13.6 26 Este 38 Este 0 1022.8 -0.3 73
2019-02-21 04:00:00 13.9 24 Este 36 Este 0 1022.9 -0.1 73
2019-02-21 03:00:00 13.9 25 Este 36 Este 0 1023 -0.2 75
2019-02-21 02:00:00 13.8 23 Este 32 Este 0 1023.1 -0.2 75
2019-02-21 01:00:00 13.8 23 Este 35 Sudeste 0 1023 0.2 75
2019-02-21 00:00:00 13.7 20 Este 28 Este 0 1023.2 1 76
2019-02-20 23:00:00 13.6 20 Este 34 Este 0 1023.3 1.3 76
2019-02-20 22:00:00 13.8 26 Este 37 Este 0 1022.8 1.4 75
2019-02-20 21:00:00 13.8 28 Este 48 Este 0 1022.2 0.8 73
2019-02-20 20:00:00 14.5 28 Este 45 Este 0 1022 0.7 69
2019-02-20 19:00:00 15.3 32 Este 44 Este 0 1021.4 -0.1 65
2019-02-20 18:00:00 16.5 28 Sudeste 37 Este 0 1021.4 -0.2 60
2019-02-20 17:00:00 17.1 26 Sudeste 34 Sudeste 0 1021.3 -0.7 59
2019-02-20 16:00:00 17.6 25 Este 39 Este 0 1021.5 -0.8 56
2019-02-20 15:00:00 18.5 22 Este 34 Este 0 1021.6 -0.6 53
2019-02-20 14:00:00 18 23 Este 36 Este 0 1022 0 53
2019-02-20 13:00:00 17.1 28 Sudeste 43 Este 0 1022.3 0.4 56
2019-02-20 12:00:00 16.4 34 Sudeste 45 Sudeste 0 1022.2 0.9 59
2019-02-20 11:00:00 15.8 24 Este 34 Sudeste 0 1022 1.3 66
2019-02-20 10:00:00 14.1 10 Este 16 Este 0 1021.9 1.7 79
2019-02-20 09:00:00 12 6 Nordeste 12 Nordeste 0 1021.3 1.5 84
2019-02-20 08:00:00 11.7 6 Nordeste 10 Nordeste 0 1020.7 1 83
2019-02-20 07:00:00 12.1 5 Nordeste 12 Nordeste 0 1020.2 0.2 82
2019-02-20 06:00:00 12.6 6 Nordeste 20 Este 0 1019.8 -0.4 81
2019-02-20 05:00:00 13.2 15 Este 28 Este 0 1019.7 -0.7 80
2019-02-20 04:00:00 13.2 22 Este 29 Este 0 1020 -0.5 81
2019-02-20 03:00:00 13 16 Este 21 Este 0 1020.2 -0.6 84
2019-02-20 02:00:00 12.8 10 Este 15 Este 0 1020.4 -0.3 82
2019-02-20 01:00:00 13.2 5 Este 10 Este 0 1020.5 0.2 78
2019-02-20 00:00:00 13.7 7 Sudeste 14 Sudeste 0 1020.8 1.2 78